sensor_id;sensor_type;location;lat;lon;timestamp;P1;durP1;ratioP1;P2;durP2;ratioP2
7997;SDS011;4044;49.814;7.828;2023-02-11T00:01:28;38.67;;;24.83;;
7997;SDS011;4044;49.814;7.828;2023-02-11T00:03:55;37.97;;;25.67;;
7997;SDS011;4044;49.814;7.828;2023-02-11T00:06:22;36.53;;;24.70;;
7997;SDS011;4044;49.814;7.828;2023-02-11T00:08:49;38.83;;;24.53;;
7997;SDS011;4044;49.814;7.828;2023-02-11T00:11:16;40.30;;;26.17;;
7997;SDS011;4044;49.814;7.828;2023-02-11T00:13:44;42.07;;;25.70;;
7997;SDS011;4044;49.814;7.828;2023-02-11T00:16:12;39.80;;;26.03;;
7997;SDS011;4044;49.814;7.828;2023-02-11T00:18:39;38.53;;;25.63;;
7997;SDS011;4044;49.814;7.828;2023-02-11T00:21:08;42.53;;;26.87;;
7997;SDS011;4044;49.814;7.828;2023-02-11T00:23:35;42.17;;;27.17;;
7997;SDS011;4044;49.814;7.828;2023-02-11T00:26:01;42.57;;;27.43;;
7997;SDS011;4044;49.814;7.828;2023-02-11T00:28:27;44.83;;;28.23;;
7997;SDS011;4044;49.814;7.828;2023-02-11T00:30:53;39.77;;;26.90;;
7997;SDS011;4044;49.814;7.828;2023-02-11T00:33:20;40.97;;;26.97;;
7997;SDS011;4044;49.814;7.828;2023-02-11T00:35:46;44.63;;;28.63;;
7997;SDS011;4044;49.814;7.828;2023-02-11T00:38:11;40.50;;;26.63;;
7997;SDS011;4044;49.814;7.828;2023-02-11T00:40:37;42.60;;;27.80;;
7997;SDS011;4044;49.814;7.828;2023-02-11T00:43:02;40.40;;;26.83;;
7997;SDS011;4044;49.814;7.828;2023-02-11T00:45:28;38.87;;;26.23;;
7997;SDS011;4044;49.814;7.828;2023-02-11T00:47:54;42.07;;;27.13;;
7997;SDS011;4044;49.814;7.828;2023-02-11T00:50:20;39.50;;;24.80;;
7997;SDS011;4044;49.814;7.828;2023-02-11T00:52:46;40.80;;;26.23;;
7997;SDS011;4044;49.814;7.828;2023-02-11T00:55:13;45.37;;;29.33;;
7997;SDS011;4044;49.814;7.828;2023-02-11T00:57:38;40.97;;;27.10;;
7997;SDS011;4044;49.814;7.828;2023-02-11T01:00:04;47.80;;;28.67;;
7997;SDS011;4044;49.814;7.828;2023-02-11T01:02:31;44.33;;;28.47;;
7997;SDS011;4044;49.814;7.828;2023-02-11T01:04:57;46.00;;;28.50;;
7997;SDS011;4044;49.814;7.828;2023-02-11T01:07:24;45.90;;;29.03;;
7997;SDS011;4044;49.814;7.828;2023-02-11T01:09:49;43.27;;;27.77;;
7997;SDS011;4044;49.814;7.828;2023-02-11T01:12:15;43.57;;;28.20;;
7997;SDS011;4044;49.814;7.828;2023-02-11T01:14:41;41.47;;;28.47;;
7997;SDS011;4044;49.814;7.828;2023-02-11T01:17:06;43.63;;;28.33;;
7997;SDS011;4044;49.814;7.828;2023-02-11T01:19:32;40.33;;;27.07;;
7997;SDS011;4044;49.814;7.828;2023-02-11T01:21:58;39.00;;;27.47;;
7997;SDS011;4044;49.814;7.828;2023-02-11T01:24:23;41.73;;;26.60;;
7997;SDS011;4044;49.814;7.828;2023-02-11T01:26:49;39.73;;;26.97;;
7997;SDS011;4044;49.814;7.828;2023-02-11T01:29:14;38.73;;;26.23;;
7997;SDS011;4044;49.814;7.828;2023-02-11T01:31:40;40.40;;;25.90;;
7997;SDS011;4044;49.814;7.828;2023-02-11T01:34:05;40.43;;;26.20;;
7997;SDS011;4044;49.814;7.828;2023-02-11T01:36:31;36.87;;;24.77;;
7997;SDS011;4044;49.814;7.828;2023-02-11T01:38:56;38.43;;;25.93;;
7997;SDS011;4044;49.814;7.828;2023-02-11T01:41:22;39.10;;;27.23;;
7997;SDS011;4044;49.814;7.828;2023-02-11T01:43:48;39.83;;;26.17;;
7997;SDS011;4044;49.814;7.828;2023-02-11T01:46:33;37.53;;;25.37;;
7997;SDS011;4044;49.814;7.828;2023-02-11T01:49:02;41.60;;;27.33;;
7997;SDS011;4044;49.814;7.828;2023-02-11T01:51:31;39.67;;;27.00;;
7997;SDS011;4044;49.814;7.828;2023-02-11T01:54:03;44.83;;;27.73;;
7997;SDS011;4044;49.814;7.828;2023-02-11T01:56:48;38.17;;;25.23;;
7997;SDS011;4044;49.814;7.828;2023-02-11T01:59:38;40.57;;;26.57;;
7997;SDS011;4044;49.814;7.828;2023-02-11T02:02:12;41.57;;;26.63;;
7997;SDS011;4044;49.814;7.828;2023-02-11T02:04:43;39.40;;;26.30;;
7997;SDS011;4044;49.814;7.828;2023-02-11T02:07:24;36.40;;;25.33;;
7997;SDS011;4044;49.814;7.828;2023-02-11T02:10:04;38.13;;;25.20;;
7997;SDS011;4044;49.814;7.828;2023-02-11T02:12:33;34.10;;;24.97;;
7997;SDS011;4044;49.814;7.828;2023-02-11T02:15:10;38.87;;;26.83;;
7997;SDS011;4044;49.814;7.828;2023-02-11T02:17:45;38.37;;;26.47;;
7997;SDS011;4044;49.814;7.828;2023-02-11T02:20:25;40.57;;;27.97;;
7997;SDS011;4044;49.814;7.828;2023-02-11T02:23:02;39.63;;;26.57;;
7997;SDS011;4044;49.814;7.828;2023-02-11T02:31:28;36.87;;;25.03;;
7997;SDS011;4044;49.814;7.828;2023-02-11T02:38:02;38.33;;;25.70;;
7997;SDS011;4044;49.814;7.828;2023-02-11T02:40:21;33.47;;;24.07;;
7997;SDS011;4044;49.814;7.828;2023-02-11T02:42:50;34.90;;;24.47;;
7997;SDS011;4044;49.814;7.828;2023-02-11T02:45:17;36.23;;;24.80;;
7997;SDS011;4044;49.814;7.828;2023-02-11T02:47:43;36.27;;;24.10;;
7997;SDS011;4044;49.814;7.828;2023-02-11T02:50:09;35.77;;;24.37;;
7997;SDS011;4044;49.814;7.828;2023-02-11T02:52:55;37.77;;;24.53;;
7997;SDS011;4044;49.814;7.828;2023-02-11T02:55:43;34.13;;;25.03;;
7997;SDS011;4044;49.814;7.828;2023-02-11T02:58:32;36.00;;;24.93;;
7997;SDS011;4044;49.814;7.828;2023-02-11T03:04:16;35.87;;;23.90;;
7997;SDS011;4044;49.814;7.828;2023-02-11T03:09:54;34.03;;;23.83;;
7997;SDS011;4044;49.814;7.828;2023-02-11T03:12:26;34.03;;;22.93;;
7997;SDS011;4044;49.814;7.828;2023-02-11T03:14:55;31.43;;;22.73;;
7997;SDS011;4044;49.814;7.828;2023-02-11T03:17:20;32.57;;;22.87;;
7997;SDS011;4044;49.814;7.828;2023-02-11T03:19:48;32.87;;;22.23;;
7997;SDS011;4044;49.814;7.828;2023-02-11T03:22:26;35.37;;;23.80;;
7997;SDS011;4044;49.814;7.828;2023-02-11T03:24:56;36.10;;;23.80;;
7997;SDS011;4044;49.814;7.828;2023-02-11T03:27:38;33.97;;;22.13;;
7997;SDS011;4044;49.814;7.828;2023-02-11T03:30:25;32.23;;;22.53;;
7997;SDS011;4044;49.814;7.828;2023-02-11T03:35:38;31.67;;;22.00;;
7997;SDS011;4044;49.814;7.828;2023-02-11T03:38:28;36.20;;;22.17;;
7997;SDS011;4044;49.814;7.828;2023-02-11T03:40:57;32.20;;;22.33;;
7997;SDS011;4044;49.814;7.828;2023-02-11T03:43:25;33.07;;;22.40;;
7997;SDS011;4044;49.814;7.828;2023-02-11T03:46:00;29.23;;;21.43;;
7997;SDS011;4044;49.814;7.828;2023-02-11T03:48:29;31.47;;;22.70;;
7997;SDS011;4044;49.814;7.828;2023-02-11T03:50:57;31.17;;;21.73;;
7997;SDS011;4044;49.814;7.828;2023-02-11T03:53:26;32.33;;;22.80;;
7997;SDS011;4044;49.814;7.828;2023-02-11T03:55:53;33.47;;;23.00;;
7997;SDS011;4044;49.814;7.828;2023-02-11T03:58:20;33.07;;;22.87;;
7997;SDS011;4044;49.814;7.828;2023-02-11T04:00:46;32.63;;;22.57;;
7997;SDS011;4044;49.814;7.828;2023-02-11T04:03:12;32.50;;;22.50;;
7997;SDS011;4044;49.814;7.828;2023-02-11T04:05:37;33.97;;;23.27;;
7997;SDS011;4044;49.814;7.828;2023-02-11T04:08:03;32.40;;;22.07;;
7997;SDS011;4044;49.814;7.828;2023-02-11T04:10:29;32.83;;;22.67;;
7997;SDS011;4044;49.814;7.828;2023-02-11T04:12:55;31.23;;;22.20;;
7997;SDS011;4044;49.814;7.828;2023-02-11T04:15:20;30.80;;;21.50;;
7997;SDS011;4044;49.814;7.828;2023-02-11T04:17:46;32.97;;;22.57;;
7997;SDS011;4044;49.814;7.828;2023-02-11T04:20:12;31.97;;;22.13;;
7997;SDS011;4044;49.814;7.828;2023-02-11T04:22:37;29.60;;;21.60;;
7997;SDS011;4044;49.814;7.828;2023-02-11T04:25:04;35.10;;;22.60;;
7997;SDS011;4044;49.814;7.828;2023-02-11T04:27:30;30.43;;;22.10;;
7997;SDS011;4044;49.814;7.828;2023-02-11T04:29:55;32.50;;;22.70;;
7997;SDS011;4044;49.814;7.828;2023-02-11T04:32:21;32.07;;;22.50;;
7997;SDS011;4044;49.814;7.828;2023-02-11T04:34:46;30.17;;;21.47;;
7997;SDS011;4044;49.814;7.828;2023-02-11T04:37:12;29.90;;;21.20;;
7997;SDS011;4044;49.814;7.828;2023-02-11T04:39:38;31.27;;;22.00;;
7997;SDS011;4044;49.814;7.828;2023-02-11T04:42:04;32.80;;;23.20;;
7997;SDS011;4044;49.814;7.828;2023-02-11T04:44:29;28.50;;;21.50;;
7997;SDS011;4044;49.814;7.828;2023-02-11T04:46:55;30.77;;;21.97;;
7997;SDS011;4044;49.814;7.828;2023-02-11T04:49:21;32.50;;;21.73;;
7997;SDS011;4044;49.814;7.828;2023-02-11T04:51:46;31.30;;;21.60;;
7997;SDS011;4044;49.814;7.828;2023-02-11T04:54:12;32.17;;;21.83;;
7997;SDS011;4044;49.814;7.828;2023-02-11T04:56:38;28.10;;;21.17;;
7997;SDS011;4044;49.814;7.828;2023-02-11T04:59:04;30.73;;;21.70;;
7997;SDS011;4044;49.814;7.828;2023-02-11T05:01:30;27.03;;;21.30;;
7997;SDS011;4044;49.814;7.828;2023-02-11T05:03:56;30.77;;;22.13;;
7997;SDS011;4044;49.814;7.828;2023-02-11T05:06:21;28.83;;;20.77;;
7997;SDS011;4044;49.814;7.828;2023-02-11T05:08:47;29.37;;;21.40;;
7997;SDS011;4044;49.814;7.828;2023-02-11T05:11:17;30.90;;;21.00;;
7997;SDS011;4044;49.814;7.828;2023-02-11T05:13:44;30.90;;;21.17;;
7997;SDS011;4044;49.814;7.828;2023-02-11T05:16:10;29.20;;;21.03;;
7997;SDS011;4044;49.814;7.828;2023-02-11T05:18:37;28.53;;;19.47;;
7997;SDS011;4044;49.814;7.828;2023-02-11T05:21:06;28.57;;;20.43;;
7997;SDS011;4044;49.814;7.828;2023-02-11T05:23:42;31.30;;;20.63;;
7997;SDS011;4044;49.814;7.828;2023-02-11T05:26:08;27.67;;;19.97;;
7997;SDS011;4044;49.814;7.828;2023-02-11T05:28:34;26.00;;;20.73;;
7997;SDS011;4044;49.814;7.828;2023-02-11T05:31:00;28.67;;;20.07;;
7997;SDS011;4044;49.814;7.828;2023-02-11T05:33:26;29.90;;;20.17;;
7997;SDS011;4044;49.814;7.828;2023-02-11T05:35:56;28.57;;;19.93;;
7997;SDS011;4044;49.814;7.828;2023-02-11T05:38:23;29.43;;;20.13;;
7997;SDS011;4044;49.814;7.828;2023-02-11T05:40:49;28.40;;;20.60;;
7997;SDS011;4044;49.814;7.828;2023-02-11T05:43:15;28.80;;;19.07;;
7997;SDS011;4044;49.814;7.828;2023-02-11T05:45:40;28.80;;;20.00;;
7997;SDS011;4044;49.814;7.828;2023-02-11T05:48:06;30.80;;;20.23;;
7997;SDS011;4044;49.814;7.828;2023-02-11T05:50:31;27.57;;;19.47;;
7997;SDS011;4044;49.814;7.828;2023-02-11T05:52:57;31.70;;;20.17;;
7997;SDS011;4044;49.814;7.828;2023-02-11T05:55:22;29.03;;;19.13;;
7997;SDS011;4044;49.814;7.828;2023-02-11T05:57:48;29.57;;;20.37;;
7997;SDS011;4044;49.814;7.828;2023-02-11T06:00:13;30.50;;;20.03;;
7997;SDS011;4044;49.814;7.828;2023-02-11T06:02:39;27.23;;;20.27;;
7997;SDS011;4044;49.814;7.828;2023-02-11T06:05:05;30.37;;;21.03;;
7997;SDS011;4044;49.814;7.828;2023-02-11T06:07:31;28.67;;;21.07;;
7997;SDS011;4044;49.814;7.828;2023-02-11T06:09:56;29.60;;;19.83;;
7997;SDS011;4044;49.814;7.828;2023-02-11T06:12:23;26.57;;;19.27;;
7997;SDS011;4044;49.814;7.828;2023-02-11T06:14:48;31.53;;;20.57;;
7997;SDS011;4044;49.814;7.828;2023-02-11T06:17:13;30.27;;;20.47;;
7997;SDS011;4044;49.814;7.828;2023-02-11T06:19:39;33.93;;;21.47;;
7997;SDS011;4044;49.814;7.828;2023-02-11T06:22:04;30.00;;;21.00;;
7997;SDS011;4044;49.814;7.828;2023-02-11T06:24:30;33.80;;;21.63;;
7997;SDS011;4044;49.814;7.828;2023-02-11T06:26:56;33.63;;;21.17;;
7997;SDS011;4044;49.814;7.828;2023-02-11T06:29:21;29.93;;;21.47;;
7997;SDS011;4044;49.814;7.828;2023-02-11T06:31:47;31.63;;;21.70;;
7997;SDS011;4044;49.814;7.828;2023-02-11T06:34:12;34.93;;;22.33;;
7997;SDS011;4044;49.814;7.828;2023-02-11T06:36:38;30.43;;;21.27;;
7997;SDS011;4044;49.814;7.828;2023-02-11T06:39:04;29.43;;;21.67;;
7997;SDS011;4044;49.814;7.828;2023-02-11T06:41:30;32.97;;;22.13;;
7997;SDS011;4044;49.814;7.828;2023-02-11T06:43:56;30.93;;;21.93;;
7997;SDS011;4044;49.814;7.828;2023-02-11T06:46:21;32.27;;;22.67;;
7997;SDS011;4044;49.814;7.828;2023-02-11T06:48:47;34.30;;;22.60;;
7997;SDS011;4044;49.814;7.828;2023-02-11T06:51:13;32.77;;;21.90;;
7997;SDS011;4044;49.814;7.828;2023-02-11T06:53:43;32.43;;;22.67;;
7997;SDS011;4044;49.814;7.828;2023-02-11T06:56:11;33.17;;;22.40;;
7997;SDS011;4044;49.814;7.828;2023-02-11T06:58:38;32.40;;;21.33;;
7997;SDS011;4044;49.814;7.828;2023-02-11T07:01:05;32.97;;;22.67;;
7997;SDS011;4044;49.814;7.828;2023-02-11T07:03:32;29.80;;;21.67;;
7997;SDS011;4044;49.814;7.828;2023-02-11T07:06:02;33.40;;;22.53;;
7997;SDS011;4044;49.814;7.828;2023-02-11T07:08:29;30.00;;;22.77;;
7997;SDS011;4044;49.814;7.828;2023-02-11T07:10:55;33.27;;;22.37;;
7997;SDS011;4044;49.814;7.828;2023-02-11T07:13:20;38.20;;;23.37;;
7997;SDS011;4044;49.814;7.828;2023-02-11T07:15:46;33.67;;;22.00;;
7997;SDS011;4044;49.814;7.828;2023-02-11T07:18:11;36.50;;;23.07;;
7997;SDS011;4044;49.814;7.828;2023-02-11T07:20:37;31.10;;;21.87;;
7997;SDS011;4044;49.814;7.828;2023-02-11T07:23:03;32.47;;;22.63;;
7997;SDS011;4044;49.814;7.828;2023-02-11T07:25:29;34.87;;;22.20;;
7997;SDS011;4044;49.814;7.828;2023-02-11T07:27:54;33.30;;;22.33;;
7997;SDS011;4044;49.814;7.828;2023-02-11T07:30:20;33.20;;;22.67;;
7997;SDS011;4044;49.814;7.828;2023-02-11T07:32:45;36.43;;;22.47;;
7997;SDS011;4044;49.814;7.828;2023-02-11T07:35:11;31.63;;;22.57;;
7997;SDS011;4044;49.814;7.828;2023-02-11T07:37:37;34.10;;;23.43;;
7997;SDS011;4044;49.814;7.828;2023-02-11T07:40:02;30.90;;;21.83;;
7997;SDS011;4044;49.814;7.828;2023-02-11T07:42:28;32.67;;;22.63;;
7997;SDS011;4044;49.814;7.828;2023-02-11T07:44:53;29.33;;;20.90;;
7997;SDS011;4044;49.814;7.828;2023-02-11T07:47:19;29.73;;;21.53;;
7997;SDS011;4044;49.814;7.828;2023-02-11T07:49:45;33.00;;;21.37;;
7997;SDS011;4044;49.814;7.828;2023-02-11T07:52:10;30.13;;;21.27;;
7997;SDS011;4044;49.814;7.828;2023-02-11T07:54:36;28.13;;;21.23;;
7997;SDS011;4044;49.814;7.828;2023-02-11T07:57:01;30.67;;;20.93;;
7997;SDS011;4044;49.814;7.828;2023-02-11T07:59:27;32.27;;;21.63;;
7997;SDS011;4044;49.814;7.828;2023-02-11T08:01:52;29.97;;;20.23;;
7997;SDS011;4044;49.814;7.828;2023-02-11T08:04:18;31.50;;;20.90;;
7997;SDS011;4044;49.814;7.828;2023-02-11T08:06:43;29.50;;;21.30;;
7997;SDS011;4044;49.814;7.828;2023-02-11T08:09:10;32.17;;;21.50;;
7997;SDS011;4044;49.814;7.828;2023-02-11T08:11:40;32.47;;;22.33;;
7997;SDS011;4044;49.814;7.828;2023-02-11T08:14:06;28.70;;;22.13;;
7997;SDS011;4044;49.814;7.828;2023-02-11T08:16:33;31.23;;;22.23;;
7997;SDS011;4044;49.814;7.828;2023-02-11T08:19:01;32.80;;;22.30;;
7997;SDS011;4044;49.814;7.828;2023-02-11T08:21:28;33.87;;;22.23;;
7997;SDS011;4044;49.814;7.828;2023-02-11T08:23:54;31.37;;;21.07;;
7997;SDS011;4044;49.814;7.828;2023-02-11T08:26:25;31.07;;;21.17;;
7997;SDS011;4044;49.814;7.828;2023-02-11T08:28:53;31.93;;;21.83;;
7997;SDS011;4044;49.814;7.828;2023-02-11T08:31:24;29.90;;;21.13;;
7997;SDS011;4044;49.814;7.828;2023-02-11T08:33:51;26.73;;;19.37;;
7997;SDS011;4044;49.814;7.828;2023-02-11T08:36:19;30.87;;;20.90;;
7997;SDS011;4044;49.814;7.828;2023-02-11T08:38:47;30.33;;;19.93;;
7997;SDS011;4044;49.814;7.828;2023-02-11T08:41:13;31.90;;;22.00;;
7997;SDS011;4044;49.814;7.828;2023-02-11T08:43:40;27.73;;;20.43;;
7997;SDS011;4044;49.814;7.828;2023-02-11T08:46:07;29.20;;;21.00;;
7997;SDS011;4044;49.814;7.828;2023-02-11T08:48:34;31.97;;;20.53;;
7997;SDS011;4044;49.814;7.828;2023-02-11T08:50:59;28.93;;;21.57;;
7997;SDS011;4044;49.814;7.828;2023-02-11T08:53:29;33.73;;;21.87;;
7997;SDS011;4044;49.814;7.828;2023-02-11T08:55:54;31.33;;;21.13;;
7997;SDS011;4044;49.814;7.828;2023-02-11T08:58:21;30.47;;;20.50;;
7997;SDS011;4044;49.814;7.828;2023-02-11T09:00:47;30.00;;;21.17;;
7997;SDS011;4044;49.814;7.828;2023-02-11T09:03:13;28.63;;;20.63;;
7997;SDS011;4044;49.814;7.828;2023-02-11T09:05:43;28.47;;;20.53;;
7997;SDS011;4044;49.814;7.828;2023-02-11T09:08:10;33.27;;;21.17;;
7997;SDS011;4044;49.814;7.828;2023-02-11T09:10:36;29.63;;;21.23;;
7997;SDS011;4044;49.814;7.828;2023-02-11T09:13:02;28.90;;;21.03;;
7997;SDS011;4044;49.814;7.828;2023-02-11T09:15:28;31.17;;;21.83;;
7997;SDS011;4044;49.814;7.828;2023-02-11T09:17:54;26.63;;;19.97;;
7997;SDS011;4044;49.814;7.828;2023-02-11T09:20:20;29.07;;;21.13;;
7997;SDS011;4044;49.814;7.828;2023-02-11T09:22:46;27.80;;;18.67;;
7997;SDS011;4044;49.814;7.828;2023-02-11T09:25:12;28.17;;;20.80;;
7997;SDS011;4044;49.814;7.828;2023-02-11T09:27:37;26.70;;;19.57;;
7997;SDS011;4044;49.814;7.828;2023-02-11T09:30:03;27.73;;;19.67;;
7997;SDS011;4044;49.814;7.828;2023-02-11T09:32:29;26.30;;;19.83;;
7997;SDS011;4044;49.814;7.828;2023-02-11T09:34:54;25.47;;;17.03;;
7997;SDS011;4044;49.814;7.828;2023-02-11T09:37:20;28.27;;;18.13;;
7997;SDS011;4044;49.814;7.828;2023-02-11T09:39:46;26.73;;;18.33;;
7997;SDS011;4044;49.814;7.828;2023-02-11T09:45:01;26.40;;;18.60;;
7997;SDS011;4044;49.814;7.828;2023-02-11T09:47:29;23.97;;;17.23;;
7997;SDS011;4044;49.814;7.828;2023-02-11T09:50:01;23.73;;;17.57;;
7997;SDS011;4044;49.814;7.828;2023-02-11T09:52:35;23.90;;;17.47;;
7997;SDS011;4044;49.814;7.828;2023-02-11T09:55:27;23.53;;;17.53;;
7997;SDS011;4044;49.814;7.828;2023-02-11T09:57:55;24.37;;;17.00;;
7997;SDS011;4044;49.814;7.828;2023-02-11T10:00:23;24.23;;;16.60;;
7997;SDS011;4044;49.814;7.828;2023-02-11T10:03:17;24.23;;;17.53;;
7997;SDS011;4044;49.814;7.828;2023-02-11T10:06:12;27.43;;;17.43;;
7997;SDS011;4044;49.814;7.828;2023-02-11T10:09:00;22.40;;;16.80;;
7997;SDS011;4044;49.814;7.828;2023-02-11T10:20:20;25.73;;;19.00;;
7997;SDS011;4044;49.814;7.828;2023-02-11T10:22:44;26.27;;;18.67;;
7997;SDS011;4044;49.814;7.828;2023-02-11T10:25:26;23.70;;;17.70;;
7997;SDS011;4044;49.814;7.828;2023-02-11T10:28:08;26.33;;;17.80;;
7997;SDS011;4044;49.814;7.828;2023-02-11T10:30:43;23.73;;;18.67;;
7997;SDS011;4044;49.814;7.828;2023-02-11T10:36:07;26.37;;;18.27;;
7997;SDS011;4044;49.814;7.828;2023-02-11T10:38:36;25.93;;;18.30;;
7997;SDS011;4044;49.814;7.828;2023-02-11T10:41:01;28.40;;;19.67;;
7997;SDS011;4044;49.814;7.828;2023-02-11T10:43:27;27.30;;;18.77;;
7997;SDS011;4044;49.814;7.828;2023-02-11T10:45:55;24.90;;;18.70;;
7997;SDS011;4044;49.814;7.828;2023-02-11T10:51:07;24.90;;;18.40;;
7997;SDS011;4044;49.814;7.828;2023-02-11T10:53:40;24.50;;;18.47;;
7997;SDS011;4044;49.814;7.828;2023-02-11T10:56:07;25.23;;;18.30;;
7997;SDS011;4044;49.814;7.828;2023-02-11T10:59:06;25.30;;;18.30;;
7997;SDS011;4044;49.814;7.828;2023-02-11T11:01:39;23.30;;;17.03;;
7997;SDS011;4044;49.814;7.828;2023-02-11T11:06:54;25.73;;;18.40;;
7997;SDS011;4044;49.814;7.828;2023-02-11T11:09:42;19.97;;;15.30;;
7997;SDS011;4044;49.814;7.828;2023-02-11T11:12:30;20.50;;;15.90;;
7997;SDS011;4044;49.814;7.828;2023-02-11T11:17:34;21.23;;;15.30;;
7997;SDS011;4044;49.814;7.828;2023-02-11T11:20:12;19.90;;;15.50;;
7997;SDS011;4044;49.814;7.828;2023-02-11T11:22:38;18.43;;;14.73;;
7997;SDS011;4044;49.814;7.828;2023-02-11T11:25:04;19.23;;;15.63;;
7997;SDS011;4044;49.814;7.828;2023-02-11T11:27:30;20.63;;;16.07;;
7997;SDS011;4044;49.814;7.828;2023-02-11T11:29:56;21.43;;;15.77;;
7997;SDS011;4044;49.814;7.828;2023-02-11T11:32:23;22.87;;;15.97;;
7997;SDS011;4044;49.814;7.828;2023-02-11T11:34:59;22.80;;;16.70;;
7997;SDS011;4044;49.814;7.828;2023-02-11T11:37:28;19.33;;;14.97;;
7997;SDS011;4044;49.814;7.828;2023-02-11T11:42:28;18.37;;;14.27;;
7997;SDS011;4044;49.814;7.828;2023-02-11T11:45:02;18.87;;;14.27;;
7997;SDS011;4044;49.814;7.828;2023-02-11T11:47:54;18.27;;;13.87;;
7997;SDS011;4044;49.814;7.828;2023-02-11T11:50:49;20.37;;;15.03;;
7997;SDS011;4044;49.814;7.828;2023-02-11T11:56:10;18.43;;;15.27;;
7997;SDS011;4044;49.814;7.828;2023-02-11T11:58:42;18.67;;;15.23;;
7997;SDS011;4044;49.814;7.828;2023-02-11T12:01:23;19.73;;;14.37;;
7997;SDS011;4044;49.814;7.828;2023-02-11T12:06:55;17.90;;;14.43;;
7997;SDS011;4044;49.814;7.828;2023-02-11T12:09:25;19.37;;;14.83;;
7997;SDS011;4044;49.814;7.828;2023-02-11T12:12:16;17.23;;;13.53;;
7997;SDS011;4044;49.814;7.828;2023-02-11T12:26:22;16.37;;;11.43;;
7997;SDS011;4044;49.814;7.828;2023-02-11T12:31:52;13.07;;;10.73;;
7997;SDS011;4044;49.814;7.828;2023-02-11T12:34:38;10.30;;;8.73;;
7997;SDS011;4044;49.814;7.828;2023-02-11T12:37:33;11.23;;;9.13;;
7997;SDS011;4044;49.814;7.828;2023-02-11T12:40:12;9.97;;;8.37;;
7997;SDS011;4044;49.814;7.828;2023-02-11T12:51:12;8.27;;;6.90;;
7997;SDS011;4044;49.814;7.828;2023-02-11T12:57:20;7.47;;;5.40;;
7997;SDS011;4044;49.814;7.828;2023-02-11T12:59:39;6.33;;;5.30;;
7997;SDS011;4044;49.814;7.828;2023-02-11T13:02:13;5.87;;;5.17;;
7997;SDS011;4044;49.814;7.828;2023-02-11T13:05:04;6.53;;;5.13;;
7997;SDS011;4044;49.814;7.828;2023-02-11T13:07:44;5.93;;;4.80;;
7997;SDS011;4044;49.814;7.828;2023-02-11T13:12:48;6.93;;;5.53;;
7997;SDS011;4044;49.814;7.828;2023-02-11T13:15:34;6.00;;;5.17;;
7997;SDS011;4044;49.814;7.828;2023-02-11T13:20:35;5.80;;;5.27;;
7997;SDS011;4044;49.814;7.828;2023-02-11T13:23:17;6.63;;;5.67;;
7997;SDS011;4044;49.814;7.828;2023-02-11T13:25:53;5.20;;;4.70;;
7997;SDS011;4044;49.814;7.828;2023-02-11T13:28:28;7.00;;;6.30;;
7997;SDS011;4044;49.814;7.828;2023-02-11T13:31:00;5.10;;;4.60;;
7997;SDS011;4044;49.814;7.828;2023-02-11T13:33:34;6.70;;;4.93;;
7997;SDS011;4044;49.814;7.828;2023-02-11T13:38:28;4.00;;;3.63;;
7997;SDS011;4044;49.814;7.828;2023-02-11T13:43:27;4.57;;;3.90;;
7997;SDS011;4044;49.814;7.828;2023-02-11T13:45:57;3.87;;;3.57;;
7997;SDS011;4044;49.814;7.828;2023-02-11T13:48:33;4.30;;;3.53;;
7997;SDS011;4044;49.814;7.828;2023-02-11T13:51:02;4.03;;;3.70;;
7997;SDS011;4044;49.814;7.828;2023-02-11T13:54:17;3.27;;;2.90;;
7997;SDS011;4044;49.814;7.828;2023-02-11T13:56:30;3.67;;;3.37;;
7997;SDS011;4044;49.814;7.828;2023-02-11T13:59:01;3.87;;;3.50;;
7997;SDS011;4044;49.814;7.828;2023-02-11T14:10:57;6.00;;;4.70;;
7997;SDS011;4044;49.814;7.828;2023-02-11T14:13:24;5.20;;;4.70;;
7997;SDS011;4044;49.814;7.828;2023-02-11T14:21:21;5.83;;;5.23;;
7997;SDS011;4044;49.814;7.828;2023-02-11T14:23:51;5.60;;;5.00;;
7997;SDS011;4044;49.814;7.828;2023-02-11T14:28:58;5.90;;;5.10;;
7997;SDS011;4044;49.814;7.828;2023-02-11T14:31:38;6.07;;;5.47;;
7997;SDS011;4044;49.814;7.828;2023-02-11T14:36:46;5.23;;;4.73;;
7997;SDS011;4044;49.814;7.828;2023-02-11T14:42:17;5.30;;;4.80;;
7997;SDS011;4044;49.814;7.828;2023-02-11T14:44:46;5.53;;;4.93;;
7997;SDS011;4044;49.814;7.828;2023-02-11T14:47:16;6.50;;;5.40;;
7997;SDS011;4044;49.814;7.828;2023-02-11T14:49:46;6.40;;;5.80;;
7997;SDS011;4044;49.814;7.828;2023-02-11T14:52:16;7.97;;;6.30;;
7997;SDS011;4044;49.814;7.828;2023-02-11T14:55:12;6.00;;;5.40;;
7997;SDS011;4044;49.814;7.828;2023-02-11T14:58:03;9.03;;;7.30;;
7997;SDS011;4044;49.814;7.828;2023-02-11T15:00:30;8.50;;;6.97;;
7997;SDS011;4044;49.814;7.828;2023-02-11T15:02:56;7.40;;;6.20;;
7997;SDS011;4044;49.814;7.828;2023-02-11T15:05:23;8.87;;;7.23;;
7997;SDS011;4044;49.814;7.828;2023-02-11T15:07:50;12.07;;;9.77;;
7997;SDS011;4044;49.814;7.828;2023-02-11T15:10:25;12.37;;;10.40;;
7997;SDS011;4044;49.814;7.828;2023-02-11T15:13:00;14.57;;;10.73;;
7997;SDS011;4044;49.814;7.828;2023-02-11T15:15:26;14.10;;;9.93;;
7997;SDS011;4044;49.814;7.828;2023-02-11T15:17:54;12.07;;;9.93;;
7997;SDS011;4044;49.814;7.828;2023-02-11T15:20:24;13.20;;;9.60;;
7997;SDS011;4044;49.814;7.828;2023-02-11T15:22:56;16.70;;;11.60;;
7997;SDS011;4044;49.814;7.828;2023-02-11T15:25:25;14.30;;;11.33;;
7997;SDS011;4044;49.814;7.828;2023-02-11T15:27:52;16.00;;;12.33;;
7997;SDS011;4044;49.814;7.828;2023-02-11T15:32:46;14.33;;;11.60;;
7997;SDS011;4044;49.814;7.828;2023-02-11T15:35:22;16.30;;;11.80;;
7997;SDS011;4044;49.814;7.828;2023-02-11T15:37:49;13.17;;;11.00;;
7997;SDS011;4044;49.814;7.828;2023-02-11T15:40:16;13.13;;;10.77;;
7997;SDS011;4044;49.814;7.828;2023-02-11T15:42:56;12.63;;;10.60;;
7997;SDS011;4044;49.814;7.828;2023-02-11T15:45:28;14.23;;;10.97;;
7997;SDS011;4044;49.814;7.828;2023-02-11T15:48:13;13.80;;;10.87;;
7997;SDS011;4044;49.814;7.828;2023-02-11T15:50:49;16.37;;;12.07;;
7997;SDS011;4044;49.814;7.828;2023-02-11T15:56:02;16.57;;;11.37;;
7997;SDS011;4044;49.814;7.828;2023-02-11T15:58:36;16.40;;;11.70;;
7997;SDS011;4044;49.814;7.828;2023-02-11T16:01:02;17.53;;;12.37;;
7997;SDS011;4044;49.814;7.828;2023-02-11T16:03:29;17.33;;;12.13;;
7997;SDS011;4044;49.814;7.828;2023-02-11T16:06:13;15.37;;;12.50;;
7997;SDS011;4044;49.814;7.828;2023-02-11T16:09:47;19.03;;;14.00;;
7997;SDS011;4044;49.814;7.828;2023-02-11T16:16:57;25.83;;;18.63;;
7997;SDS011;4044;49.814;7.828;2023-02-11T16:19:31;48.57;;;31.33;;
7997;SDS011;4044;49.814;7.828;2023-02-11T16:21:58;55.17;;;32.67;;
7997;SDS011;4044;49.814;7.828;2023-02-11T16:24:32;143.47;;;80.20;;
7997;SDS011;4044;49.814;7.828;2023-02-11T16:27:00;23.97;;;16.87;;
7997;SDS011;4044;49.814;7.828;2023-02-11T16:29:32;30.33;;;23.13;;
7997;SDS011;4044;49.814;7.828;2023-02-11T16:32:08;25.93;;;18.73;;
7997;SDS011;4044;49.814;7.828;2023-02-11T16:34:40;19.03;;;13.73;;
7997;SDS011;4044;49.814;7.828;2023-02-11T16:37:05;19.07;;;13.50;;
7997;SDS011;4044;49.814;7.828;2023-02-11T16:39:31;20.20;;;16.00;;
7997;SDS011;4044;49.814;7.828;2023-02-11T16:41:57;37.13;;;24.63;;
7997;SDS011;4044;49.814;7.828;2023-02-11T16:44:23;20.30;;;14.20;;
7997;SDS011;4044;49.814;7.828;2023-02-11T16:46:49;20.67;;;15.60;;
7997;SDS011;4044;49.814;7.828;2023-02-11T16:49:25;20.70;;;14.90;;
7997;SDS011;4044;49.814;7.828;2023-02-11T16:51:54;22.23;;;15.17;;
7997;SDS011;4044;49.814;7.828;2023-02-11T16:54:22;18.67;;;13.83;;
7997;SDS011;4044;49.814;7.828;2023-02-11T16:56:48;17.03;;;13.60;;
7997;SDS011;4044;49.814;7.828;2023-02-11T16:59:13;17.87;;;14.13;;
7997;SDS011;4044;49.814;7.828;2023-02-11T17:01:40;20.17;;;14.90;;
7997;SDS011;4044;49.814;7.828;2023-02-11T17:04:11;19.50;;;14.07;;
7997;SDS011;4044;49.814;7.828;2023-02-11T17:06:47;21.10;;;14.40;;